sensor_id;sensor_type;location;lat;lon;timestamp;P1;durP1;ratioP1;P2;durP2;ratioP2
53646;SDS011;39550;52.230;5.194;2024-03-02T00:02:06;5.25;;;2.83;;
53646;SDS011;39550;52.230;5.194;2024-03-02T00:04:32;4.88;;;2.65;;
53646;SDS011;39550;52.230;5.194;2024-03-02T00:06:57;4.32;;;2.47;;
53646;SDS011;39550;52.230;5.194;2024-03-02T00:09:22;5.00;;;2.50;;
53646;SDS011;39550;52.230;5.194;2024-03-02T00:11:48;4.25;;;2.42;;
53646;SDS011;39550;52.230;5.194;2024-03-02T00:14:13;4.90;;;2.65;;
53646;SDS011;39550;52.230;5.194;2024-03-02T00:16:38;6.57;;;2.53;;
53646;SDS011;39550;52.230;5.194;2024-03-02T00:19:05;4.47;;;2.38;;
53646;SDS011;39550;52.230;5.194;2024-03-02T00:21:31;4.72;;;2.70;;
53646;SDS011;39550;52.230;5.194;2024-03-02T00:23:58;4.05;;;2.15;;
53646;SDS011;39550;52.230;5.194;2024-03-02T00:26:24;5.85;;;2.40;;
53646;SDS011;39550;52.230;5.194;2024-03-02T00:28:50;4.18;;;2.50;;
53646;SDS011;39550;52.230;5.194;2024-03-02T00:31:21;4.03;;;2.22;;
53646;SDS011;39550;52.230;5.194;2024-03-02T00:33:47;3.78;;;2.10;;
53646;SDS011;39550;52.230;5.194;2024-03-02T00:36:14;4.65;;;2.33;;
53646;SDS011;39550;52.230;5.194;2024-03-02T00:38:47;4.30;;;2.25;;
53646;SDS011;39550;52.230;5.194;2024-03-02T00:43:59;4.55;;;2.53;;
53646;SDS011;39550;52.230;5.194;2024-03-02T00:48:53;5.03;;;2.30;;
53646;SDS011;39550;52.230;5.194;2024-03-02T00:51:23;4.68;;;2.50;;
53646;SDS011;39550;52.230;5.194;2024-03-02T00:53:53;3.90;;;2.30;;
53646;SDS011;39550;52.230;5.194;2024-03-02T00:56:22;4.05;;;2.25;;
53646;SDS011;39550;52.230;5.194;2024-03-02T00:58:49;4.43;;;2.00;;
53646;SDS011;39550;52.230;5.194;2024-03-02T01:01:14;4.53;;;2.33;;
53646;SDS011;39550;52.230;5.194;2024-03-02T01:03:41;4.13;;;2.03;;
53646;SDS011;39550;52.230;5.194;2024-03-02T01:06:07;5.00;;;2.10;;
53646;SDS011;39550;52.230;5.194;2024-03-02T01:08:32;4.30;;;2.47;;
53646;SDS011;39550;52.230;5.194;2024-03-02T01:10:59;3.85;;;2.00;;
53646;SDS011;39550;52.230;5.194;2024-03-02T01:13:24;3.97;;;2.17;;
53646;SDS011;39550;52.230;5.194;2024-03-02T01:15:49;3.60;;;2.10;;
53646;SDS011;39550;52.230;5.194;2024-03-02T01:18:15;3.95;;;1.90;;
53646;SDS011;39550;52.230;5.194;2024-03-02T01:20:40;3.45;;;2.03;;
53646;SDS011;39550;52.230;5.194;2024-03-02T01:23:06;4.00;;;1.95;;
53646;SDS011;39550;52.230;5.194;2024-03-02T01:25:31;3.45;;;1.88;;
53646;SDS011;39550;52.230;5.194;2024-03-02T01:27:57;2.83;;;1.88;;
53646;SDS011;39550;52.230;5.194;2024-03-02T01:30:22;2.90;;;1.70;;
53646;SDS011;39550;52.230;5.194;2024-03-02T01:32:47;3.35;;;1.92;;
53646;SDS011;39550;52.230;5.194;2024-03-02T01:35:13;3.45;;;1.80;;
53646;SDS011;39550;52.230;5.194;2024-03-02T01:37:39;3.65;;;2.10;;
53646;SDS011;39550;52.230;5.194;2024-03-02T01:40:05;3.20;;;1.70;;
53646;SDS011;39550;52.230;5.194;2024-03-02T01:42:34;3.58;;;1.80;;
53646;SDS011;39550;52.230;5.194;2024-03-02T01:45:01;3.25;;;1.80;;
53646;SDS011;39550;52.230;5.194;2024-03-02T01:47:26;3.20;;;1.90;;
53646;SDS011;39550;52.230;5.194;2024-03-02T01:49:51;4.70;;;2.03;;
53646;SDS011;39550;52.230;5.194;2024-03-02T01:52:17;3.35;;;1.77;;
53646;SDS011;39550;52.230;5.194;2024-03-02T01:54:42;4.13;;;2.10;;
53646;SDS011;39550;52.230;5.194;2024-03-02T01:57:07;3.78;;;1.70;;
53646;SDS011;39550;52.230;5.194;2024-03-02T01:59:32;3.53;;;1.85;;
53646;SDS011;39550;52.230;5.194;2024-03-02T02:01:58;3.60;;;1.70;;
53646;SDS011;39550;52.230;5.194;2024-03-02T02:04:23;3.88;;;1.85;;
53646;SDS011;39550;52.230;5.194;2024-03-02T02:06:52;3.80;;;1.70;;
53646;SDS011;39550;52.230;5.194;2024-03-02T02:09:18;3.05;;;1.70;;
53646;SDS011;39550;52.230;5.194;2024-03-02T02:11:44;2.67;;;1.55;;
53646;SDS011;39550;52.230;5.194;2024-03-02T02:14:09;3.50;;;1.80;;
53646;SDS011;39550;52.230;5.194;2024-03-02T02:16:35;3.65;;;1.70;;
53646;SDS011;39550;52.230;5.194;2024-03-02T02:19:00;3.78;;;1.80;;
53646;SDS011;39550;52.230;5.194;2024-03-02T02:21:25;4.03;;;1.98;;
53646;SDS011;39550;52.230;5.194;2024-03-02T02:23:51;3.03;;;1.75;;
53646;SDS011;39550;52.230;5.194;2024-03-02T02:26:16;3.30;;;1.75;;
53646;SDS011;39550;52.230;5.194;2024-03-02T02:28:42;3.80;;;1.85;;
53646;SDS011;39550;52.230;5.194;2024-03-02T02:31:15;3.05;;;1.70;;
53646;SDS011;39550;52.230;5.194;2024-03-02T02:33:40;3.33;;;1.73;;
53646;SDS011;39550;52.230;5.194;2024-03-02T02:36:06;4.50;;;1.70;;
53646;SDS011;39550;52.230;5.194;2024-03-02T02:38:35;4.57;;;2.15;;
53646;SDS011;39550;52.230;5.194;2024-03-02T02:41:03;3.10;;;1.60;;
53646;SDS011;39550;52.230;5.194;2024-03-02T02:43:28;4.88;;;1.77;;
53646;SDS011;39550;52.230;5.194;2024-03-02T02:45:53;2.63;;;1.50;;
53646;SDS011;39550;52.230;5.194;2024-03-02T02:48:19;3.50;;;1.80;;
53646;SDS011;39550;52.230;5.194;2024-03-02T02:50:44;3.10;;;1.90;;
53646;SDS011;39550;52.230;5.194;2024-03-02T02:53:09;3.30;;;1.63;;
53646;SDS011;39550;52.230;5.194;2024-03-02T02:55:35;3.58;;;1.73;;
53646;SDS011;39550;52.230;5.194;2024-03-02T02:58:05;2.88;;;1.60;;
53646;SDS011;39550;52.230;5.194;2024-03-02T03:00:31;2.10;;;1.40;;
53646;SDS011;39550;52.230;5.194;2024-03-02T03:02:56;3.28;;;1.75;;
53646;SDS011;39550;52.230;5.194;2024-03-02T03:05:21;2.40;;;1.42;;
53646;SDS011;39550;52.230;5.194;2024-03-02T03:07:47;2.88;;;1.65;;
53646;SDS011;39550;52.230;5.194;2024-03-02T03:10:14;2.58;;;1.52;;
53646;SDS011;39550;52.230;5.194;2024-03-02T03:12:40;2.97;;;1.70;;
53646;SDS011;39550;52.230;5.194;2024-03-02T03:15:07;3.30;;;1.70;;
53646;SDS011;39550;52.230;5.194;2024-03-02T03:17:33;3.05;;;1.60;;
53646;SDS011;39550;52.230;5.194;2024-03-02T03:19:59;2.78;;;1.60;;
53646;SDS011;39550;52.230;5.194;2024-03-02T03:22:25;3.45;;;1.80;;
53646;SDS011;39550;52.230;5.194;2024-03-02T03:24:51;3.08;;;1.65;;
53646;SDS011;39550;52.230;5.194;2024-03-02T03:27:16;3.90;;;1.95;;
53646;SDS011;39550;52.230;5.194;2024-03-02T03:29:41;3.85;;;1.80;;
53646;SDS011;39550;52.230;5.194;2024-03-02T03:32:07;3.63;;;1.92;;
53646;SDS011;39550;52.230;5.194;2024-03-02T03:34:32;2.72;;;1.50;;
53646;SDS011;39550;52.230;5.194;2024-03-02T03:36:58;3.10;;;1.85;;
53646;SDS011;39550;52.230;5.194;2024-03-02T03:39:23;3.17;;;2.33;;
53646;SDS011;39550;52.230;5.194;2024-03-02T03:41:48;3.80;;;1.60;;
53646;SDS011;39550;52.230;5.194;2024-03-02T03:44:14;3.80;;;1.73;;
53646;SDS011;39550;52.230;5.194;2024-03-02T03:46:39;3.28;;;1.65;;
53646;SDS011;39550;52.230;5.194;2024-03-02T03:49:04;3.55;;;1.83;;
53646;SDS011;39550;52.230;5.194;2024-03-02T03:51:30;2.60;;;1.58;;
53646;SDS011;39550;52.230;5.194;2024-03-02T03:53:55;2.47;;;1.50;;
53646;SDS011;39550;52.230;5.194;2024-03-02T03:56:21;2.70;;;1.60;;
53646;SDS011;39550;52.230;5.194;2024-03-02T03:58:46;2.80;;;1.52;;
53646;SDS011;39550;52.230;5.194;2024-03-02T04:01:11;2.85;;;1.75;;
53646;SDS011;39550;52.230;5.194;2024-03-02T04:03:37;2.80;;;1.50;;
53646;SDS011;39550;52.230;5.194;2024-03-02T04:06:03;3.33;;;1.70;;
53646;SDS011;39550;52.230;5.194;2024-03-02T04:08:28;2.53;;;1.50;;
53646;SDS011;39550;52.230;5.194;2024-03-02T04:10:53;3.28;;;1.60;;
53646;SDS011;39550;52.230;5.194;2024-03-02T04:13:19;2.58;;;1.60;;
53646;SDS011;39550;52.230;5.194;2024-03-02T04:15:45;2.80;;;1.50;;
53646;SDS011;39550;52.230;5.194;2024-03-02T04:18:10;3.28;;;1.67;;
53646;SDS011;39550;52.230;5.194;2024-03-02T04:20:36;2.25;;;1.58;;
53646;SDS011;39550;52.230;5.194;2024-03-02T04:23:01;2.95;;;1.48;;
53646;SDS011;39550;52.230;5.194;2024-03-02T04:25:27;2.83;;;1.40;;
53646;SDS011;39550;52.230;5.194;2024-03-02T04:27:52;2.25;;;1.42;;
53646;SDS011;39550;52.230;5.194;2024-03-02T04:30:17;3.78;;;1.60;;
53646;SDS011;39550;52.230;5.194;2024-03-02T04:32:43;4.10;;;1.50;;
53646;SDS011;39550;52.230;5.194;2024-03-02T04:35:11;2.15;;;1.40;;
53646;SDS011;39550;52.230;5.194;2024-03-02T04:37:37;2.50;;;1.40;;
53646;SDS011;39550;52.230;5.194;2024-03-02T04:40:02;3.03;;;1.65;;
53646;SDS011;39550;52.230;5.194;2024-03-02T04:42:28;2.58;;;1.50;;
53646;SDS011;39550;52.230;5.194;2024-03-02T04:44:53;2.17;;;1.40;;
53646;SDS011;39550;52.230;5.194;2024-03-02T04:47:19;2.85;;;1.60;;
53646;SDS011;39550;52.230;5.194;2024-03-02T04:49:44;2.97;;;1.58;;
53646;SDS011;39550;52.230;5.194;2024-03-02T04:52:09;3.10;;;1.60;;
53646;SDS011;39550;52.230;5.194;2024-03-02T04:54:35;1.95;;;1.60;;
53646;SDS011;39550;52.230;5.194;2024-03-02T04:57:22;4.45;;;1.70;;
53646;SDS011;39550;52.230;5.194;2024-03-02T04:59:48;2.90;;;1.60;;
53646;SDS011;39550;52.230;5.194;2024-03-02T05:02:13;2.95;;;1.73;;
53646;SDS011;39550;52.230;5.194;2024-03-02T05:04:39;3.28;;;1.63;;
53646;SDS011;39550;52.230;5.194;2024-03-02T05:07:04;2.85;;;1.52;;
53646;SDS011;39550;52.230;5.194;2024-03-02T05:09:30;2.30;;;1.33;;
53646;SDS011;39550;52.230;5.194;2024-03-02T05:11:55;2.17;;;1.40;;
53646;SDS011;39550;52.230;5.194;2024-03-02T05:14:39;2.97;;;1.52;;
53646;SDS011;39550;52.230;5.194;2024-03-02T05:17:04;1.92;;;1.40;;
53646;SDS011;39550;52.230;5.194;2024-03-02T05:19:30;2.35;;;1.50;;
53646;SDS011;39550;52.230;5.194;2024-03-02T05:21:55;2.50;;;1.48;;
53646;SDS011;39550;52.230;5.194;2024-03-02T05:24:20;2.17;;;1.52;;
53646;SDS011;39550;52.230;5.194;2024-03-02T05:26:45;3.78;;;1.50;;
53646;SDS011;39550;52.230;5.194;2024-03-02T05:29:10;2.35;;;1.48;;
53646;SDS011;39550;52.230;5.194;2024-03-02T05:31:36;2.38;;;1.50;;
53646;SDS011;39550;52.230;5.194;2024-03-02T05:34:01;1.80;;;1.33;;
53646;SDS011;39550;52.230;5.194;2024-03-02T05:36:27;1.75;;;1.33;;
53646;SDS011;39550;52.230;5.194;2024-03-02T05:38:52;3.15;;;1.50;;
53646;SDS011;39550;52.230;5.194;2024-03-02T05:41:18;2.50;;;1.50;;
53646;SDS011;39550;52.230;5.194;2024-03-02T05:43:43;2.63;;;1.50;;
53646;SDS011;39550;52.230;5.194;2024-03-02T05:46:08;3.28;;;1.40;;
53646;SDS011;39550;52.230;5.194;2024-03-02T05:48:34;2.90;;;1.40;;
53646;SDS011;39550;52.230;5.194;2024-03-02T05:50:59;3.30;;;1.65;;
53646;SDS011;39550;52.230;5.194;2024-03-02T05:53:24;2.05;;;1.48;;
53646;SDS011;39550;52.230;5.194;2024-03-02T05:55:49;2.72;;;1.40;;
53646;SDS011;39550;52.230;5.194;2024-03-02T05:58:20;3.35;;;1.73;;
53646;SDS011;39550;52.230;5.194;2024-03-02T06:01:02;2.65;;;1.50;;
53646;SDS011;39550;52.230;5.194;2024-03-02T06:03:28;2.85;;;1.52;;
53646;SDS011;39550;52.230;5.194;2024-03-02T06:05:53;2.42;;;1.40;;
53646;SDS011;39550;52.230;5.194;2024-03-02T06:08:18;2.42;;;1.50;;
53646;SDS011;39550;52.230;5.194;2024-03-02T06:10:44;2.42;;;1.40;;
53646;SDS011;39550;52.230;5.194;2024-03-02T06:13:09;3.17;;;1.40;;
53646;SDS011;39550;52.230;5.194;2024-03-02T06:15:34;2.70;;;1.40;;
53646;SDS011;39550;52.230;5.194;2024-03-02T06:18:01;1.85;;;1.40;;
53646;SDS011;39550;52.230;5.194;2024-03-02T06:20:26;2.58;;;1.55;;
53646;SDS011;39550;52.230;5.194;2024-03-02T06:22:51;3.10;;;1.60;;
53646;SDS011;39550;52.230;5.194;2024-03-02T06:25:17;2.97;;;1.40;;
53646;SDS011;39550;52.230;5.194;2024-03-02T06:27:42;3.92;;;1.60;;
53646;SDS011;39550;52.230;5.194;2024-03-02T06:30:08;2.55;;;1.40;;
53646;SDS011;39550;52.230;5.194;2024-03-02T06:32:33;2.05;;;1.27;;
53646;SDS011;39550;52.230;5.194;2024-03-02T06:34:59;1.98;;;1.40;;
53646;SDS011;39550;52.230;5.194;2024-03-02T06:37:24;1.90;;;1.60;;
53646;SDS011;39550;52.230;5.194;2024-03-02T06:39:50;2.75;;;1.50;;
53646;SDS011;39550;52.230;5.194;2024-03-02T06:42:15;3.10;;;1.63;;
53646;SDS011;39550;52.230;5.194;2024-03-02T06:44:40;2.78;;;1.50;;
53646;SDS011;39550;52.230;5.194;2024-03-02T06:47:05;2.40;;;1.70;;
53646;SDS011;39550;52.230;5.194;2024-03-02T06:49:31;2.53;;;1.40;;
53646;SDS011;39550;52.230;5.194;2024-03-02T06:51:56;2.20;;;1.40;;
53646;SDS011;39550;52.230;5.194;2024-03-02T06:54:21;2.25;;;1.52;;
53646;SDS011;39550;52.230;5.194;2024-03-02T06:56:46;3.33;;;1.50;;
53646;SDS011;39550;52.230;5.194;2024-03-02T06:59:12;2.47;;;1.50;;
53646;SDS011;39550;52.230;5.194;2024-03-02T07:01:37;2.15;;;1.40;;
53646;SDS011;39550;52.230;5.194;2024-03-02T07:04:02;2.13;;;1.40;;
53646;SDS011;39550;52.230;5.194;2024-03-02T07:06:28;3.58;;;1.42;;
53646;SDS011;39550;52.230;5.194;2024-03-02T07:08:53;2.28;;;1.60;;
53646;SDS011;39550;52.230;5.194;2024-03-02T07:11:18;2.72;;;1.50;;
53646;SDS011;39550;52.230;5.194;2024-03-02T07:13:43;2.75;;;1.42;;
53646;SDS011;39550;52.230;5.194;2024-03-02T07:16:09;2.28;;;1.50;;
53646;SDS011;39550;52.230;5.194;2024-03-02T07:18:54;2.90;;;1.70;;
53646;SDS011;39550;52.230;5.194;2024-03-02T07:21:21;3.58;;;1.80;;
53646;SDS011;39550;52.230;5.194;2024-03-02T07:23:49;3.60;;;1.60;;
53646;SDS011;39550;52.230;5.194;2024-03-02T07:26:15;2.17;;;1.60;;
53646;SDS011;39550;52.230;5.194;2024-03-02T07:28:43;2.30;;;1.35;;
53646;SDS011;39550;52.230;5.194;2024-03-02T07:31:09;2.72;;;1.60;;
53646;SDS011;39550;52.230;5.194;2024-03-02T07:33:34;3.42;;;1.65;;
53646;SDS011;39550;52.230;5.194;2024-03-02T07:36:00;3.65;;;1.50;;
53646;SDS011;39550;52.230;5.194;2024-03-02T07:38:25;2.40;;;1.40;;
53646;SDS011;39550;52.230;5.194;2024-03-02T07:40:52;2.08;;;1.40;;
53646;SDS011;39550;52.230;5.194;2024-03-02T07:43:20;2.40;;;1.45;;
53646;SDS011;39550;52.230;5.194;2024-03-02T07:45:46;2.95;;;1.60;;
53646;SDS011;39550;52.230;5.194;2024-03-02T07:48:12;2.83;;;1.55;;
53646;SDS011;39550;52.230;5.194;2024-03-02T07:50:37;2.20;;;1.50;;
53646;SDS011;39550;52.230;5.194;2024-03-02T07:53:04;8.35;;;1.80;;
53646;SDS011;39550;52.230;5.194;2024-03-02T07:55:30;2.13;;;1.40;;
53646;SDS011;39550;52.230;5.194;2024-03-02T07:57:56;4.35;;;1.80;;
53646;SDS011;39550;52.230;5.194;2024-03-02T08:00:22;3.55;;;1.50;;
53646;SDS011;39550;52.230;5.194;2024-03-02T08:02:48;3.13;;;1.50;;
53646;SDS011;39550;52.230;5.194;2024-03-02T08:05:13;2.63;;;1.50;;
53646;SDS011;39550;52.230;5.194;2024-03-02T08:07:39;3.10;;;1.50;;
53646;SDS011;39550;52.230;5.194;2024-03-02T08:10:05;3.63;;;1.50;;
53646;SDS011;39550;52.230;5.194;2024-03-02T08:12:30;4.38;;;1.80;;
53646;SDS011;39550;52.230;5.194;2024-03-02T08:14:56;5.82;;;1.63;;
53646;SDS011;39550;52.230;5.194;2024-03-02T08:17:21;2.17;;;1.50;;
53646;SDS011;39550;52.230;5.194;2024-03-02T08:19:46;3.28;;;2.38;;
53646;SDS011;39550;52.230;5.194;2024-03-02T08:22:13;3.40;;;1.50;;
53646;SDS011;39550;52.230;5.194;2024-03-02T08:24:39;2.60;;;1.52;;
53646;SDS011;39550;52.230;5.194;2024-03-02T08:27:05;3.13;;;1.50;;
53646;SDS011;39550;52.230;5.194;2024-03-02T08:29:30;2.38;;;1.40;;
53646;SDS011;39550;52.230;5.194;2024-03-02T08:31:56;2.78;;;1.50;;
53646;SDS011;39550;52.230;5.194;2024-03-02T08:34:21;4.40;;;1.50;;
53646;SDS011;39550;52.230;5.194;2024-03-02T08:36:46;3.10;;;1.50;;
53646;SDS011;39550;52.230;5.194;2024-03-02T08:39:12;4.10;;;1.70;;
53646;SDS011;39550;52.230;5.194;2024-03-02T08:41:41;2.78;;;1.42;;
53646;SDS011;39550;52.230;5.194;2024-03-02T08:44:08;2.78;;;1.50;;
53646;SDS011;39550;52.230;5.194;2024-03-02T08:46:33;2.90;;;1.60;;
53646;SDS011;39550;52.230;5.194;2024-03-02T08:48:59;2.70;;;1.42;;
53646;SDS011;39550;52.230;5.194;2024-03-02T08:51:24;3.45;;;1.60;;
53646;SDS011;39550;52.230;5.194;2024-03-02T08:53:50;2.30;;;1.50;;
53646;SDS011;39550;52.230;5.194;2024-03-02T08:56:15;2.67;;;1.45;;
53646;SDS011;39550;52.230;5.194;2024-03-02T08:58:41;3.47;;;1.55;;
53646;SDS011;39550;52.230;5.194;2024-03-02T09:01:06;4.47;;;1.80;;
53646;SDS011;39550;52.230;5.194;2024-03-02T09:03:33;4.72;;;1.70;;
53646;SDS011;39550;52.230;5.194;2024-03-02T09:05:59;2.65;;;1.50;;
53646;SDS011;39550;52.230;5.194;2024-03-02T09:08:25;3.05;;;1.60;;
53646;SDS011;39550;52.230;5.194;2024-03-02T09:10:50;2.35;;;1.58;;
53646;SDS011;39550;52.230;5.194;2024-03-02T09:13:15;3.50;;;1.65;;
53646;SDS011;39550;52.230;5.194;2024-03-02T09:15:41;5.43;;;2.40;;
53646;SDS011;39550;52.230;5.194;2024-03-02T09:18:07;4.13;;;2.38;;
53646;SDS011;39550;52.230;5.194;2024-03-02T09:20:32;4.00;;;1.60;;
53646;SDS011;39550;52.230;5.194;2024-03-02T09:22:57;5.95;;;1.67;;
53646;SDS011;39550;52.230;5.194;2024-03-02T09:25:22;4.25;;;1.63;;
53646;SDS011;39550;52.230;5.194;2024-03-02T09:27:48;4.68;;;1.83;;
53646;SDS011;39550;52.230;5.194;2024-03-02T09:30:13;4.28;;;1.90;;
53646;SDS011;39550;52.230;5.194;2024-03-02T09:32:39;4.20;;;1.73;;
53646;SDS011;39550;52.230;5.194;2024-03-02T09:35:04;6.57;;;2.00;;
53646;SDS011;39550;52.230;5.194;2024-03-02T09:37:30;4.45;;;1.67;;
53646;SDS011;39550;52.230;5.194;2024-03-02T09:39:55;4.13;;;1.60;;
53646;SDS011;39550;52.230;5.194;2024-03-02T09:42:20;3.75;;;1.55;;
53646;SDS011;39550;52.230;5.194;2024-03-02T09:44:47;4.95;;;1.63;;
53646;SDS011;39550;52.230;5.194;2024-03-02T09:47:12;4.88;;;1.70;;
53646;SDS011;39550;52.230;5.194;2024-03-02T09:49:38;5.45;;;2.58;;
53646;SDS011;39550;52.230;5.194;2024-03-02T09:52:04;6.18;;;1.83;;
53646;SDS011;39550;52.230;5.194;2024-03-02T09:54:30;3.55;;;1.75;;
53646;SDS011;39550;52.230;5.194;2024-03-02T09:56:55;6.05;;;1.67;;
53646;SDS011;39550;52.230;5.194;2024-03-02T09:59:21;3.33;;;1.98;;
53646;SDS011;39550;52.230;5.194;2024-03-02T10:01:56;5.57;;;2.03;;
53646;SDS011;39550;52.230;5.194;2024-03-02T10:04:24;5.95;;;1.90;;
53646;SDS011;39550;52.230;5.194;2024-03-02T10:06:50;2.35;;;1.73;;
53646;SDS011;39550;52.230;5.194;2024-03-02T10:09:26;9.45;;;2.03;;
53646;SDS011;39550;52.230;5.194;2024-03-02T10:11:52;4.15;;;1.63;;
53646;SDS011;39550;52.230;5.194;2024-03-02T10:14:18;7.30;;;2.05;;
53646;SDS011;39550;52.230;5.194;2024-03-02T10:16:43;6.05;;;1.95;;
53646;SDS011;39550;52.230;5.194;2024-03-02T10:21:54;6.25;;;2.38;;
53646;SDS011;39550;52.230;5.194;2024-03-02T10:24:20;5.50;;;1.80;;
53646;SDS011;39550;52.230;5.194;2024-03-02T10:26:47;4.65;;;1.77;;
53646;SDS011;39550;52.230;5.194;2024-03-02T10:29:13;5.70;;;1.92;;
53646;SDS011;39550;52.230;5.194;2024-03-02T10:31:39;8.02;;;2.33;;
53646;SDS011;39550;52.230;5.194;2024-03-02T10:34:06;5.40;;;1.75;;
53646;SDS011;39550;52.230;5.194;2024-03-02T10:36:33;7.10;;;2.20;;
53646;SDS011;39550;52.230;5.194;2024-03-02T10:39:01;7.07;;;1.98;;
53646;SDS011;39550;52.230;5.194;2024-03-02T10:41:32;4.57;;;1.80;;
53646;SDS011;39550;52.230;5.194;2024-03-02T10:43:59;5.40;;;2.10;;
53646;SDS011;39550;52.230;5.194;2024-03-02T10:46:35;7.50;;;1.92;;
53646;SDS011;39550;52.230;5.194;2024-03-02T10:49:02;7.47;;;1.83;;
53646;SDS011;39550;52.230;5.194;2024-03-02T10:51:30;11.52;;;2.25;;
53646;SDS011;39550;52.230;5.194;2024-03-02T10:53:57;9.05;;;2.20;;
53646;SDS011;39550;52.230;5.194;2024-03-02T10:56:39;6.28;;;2.42;;
53646;SDS011;39550;52.230;5.194;2024-03-02T11:01:59;5.75;;;2.20;;
53646;SDS011;39550;52.230;5.194;2024-03-02T11:04:29;7.00;;;2.10;;
53646;SDS011;39550;52.230;5.194;2024-03-02T11:07:02;4.80;;;2.53;;
53646;SDS011;39550;52.230;5.194;2024-03-02T11:09:30;5.05;;;2.05;;
53646;SDS011;39550;52.230;5.194;2024-03-02T11:15:14;7.72;;;2.17;;
53646;SDS011;39550;52.230;5.194;2024-03-02T11:17:44;5.28;;;1.80;;
53646;SDS011;39550;52.230;5.194;2024-03-02T11:20:11;9.37;;;2.30;;
53646;SDS011;39550;52.230;5.194;2024-03-02T11:22:37;4.13;;;1.90;;
53646;SDS011;39550;52.230;5.194;2024-03-02T11:25:03;5.88;;;1.92;;
53646;SDS011;39550;52.230;5.194;2024-03-02T11:28:10;7.05;;;3.53;;
53646;SDS011;39550;52.230;5.194;2024-03-02T11:32:57;5.07;;;1.77;;
53646;SDS011;39550;52.230;5.194;2024-03-02T11:35:26;5.53;;;1.88;;
53646;SDS011;39550;52.230;5.194;2024-03-02T11:37:55;3.20;;;1.80;;
53646;SDS011;39550;52.230;5.194;2024-03-02T11:40:26;3.17;;;1.67;;
53646;SDS011;39550;52.230;5.194;2024-03-02T11:42:53;5.07;;;1.60;;
53646;SDS011;39550;52.230;5.194;2024-03-02T11:45:24;6.78;;;1.95;;
53646;SDS011;39550;52.230;5.194;2024-03-02T11:47:50;5.78;;;1.90;;
53646;SDS011;39550;52.230;5.194;2024-03-02T11:50:30;5.00;;;2.22;;
53646;SDS011;39550;52.230;5.194;2024-03-02T11:52:59;4.57;;;1.70;;
53646;SDS011;39550;52.230;5.194;2024-03-02T11:55:25;4.85;;;2.38;;
53646;SDS011;39550;52.230;5.194;2024-03-02T11:57:52;4.38;;;1.58;;
53646;SDS011;39550;52.230;5.194;2024-03-02T12:00:18;4.80;;;1.58;;
53646;SDS011;39550;52.230;5.194;2024-03-02T12:02:44;5.03;;;1.60;;
53646;SDS011;39550;52.230;5.194;2024-03-02T12:05:14;4.88;;;1.73;;
53646;SDS011;39550;52.230;5.194;2024-03-02T12:07:41;3.72;;;1.58;;
53646;SDS011;39550;52.230;5.194;2024-03-02T12:10:07;3.40;;;1.67;;
53646;SDS011;39550;52.230;5.194;2024-03-02T12:12:33;5.28;;;1.70;;
53646;SDS011;39550;52.230;5.194;2024-03-02T12:14:58;4.53;;;1.65;;
53646;SDS011;39550;52.230;5.194;2024-03-02T12:17:25;5.95;;;1.85;;
53646;SDS011;39550;52.230;5.194;2024-03-02T12:19:51;4.72;;;1.90;;
53646;SDS011;39550;52.230;5.194;2024-03-02T12:22:16;4.50;;;1.58;;
53646;SDS011;39550;52.230;5.194;2024-03-02T12:24:41;3.63;;;1.77;;
53646;SDS011;39550;52.230;5.194;2024-03-02T12:27:10;4.60;;;2.10;;
53646;SDS011;39550;52.230;5.194;2024-03-02T12:29:36;4.30;;;1.95;;
53646;SDS011;39550;52.230;5.194;2024-03-02T12:32:01;5.15;;;1.60;;
53646;SDS011;39550;52.230;5.194;2024-03-02T12:34:27;3.65;;;1.48;;
53646;SDS011;39550;52.230;5.194;2024-03-02T12:36:52;5.18;;;1.77;;
53646;SDS011;39550;52.230;5.194;2024-03-02T12:39:21;5.18;;;1.70;;
53646;SDS011;39550;52.230;5.194;2024-03-02T12:44:15;5.53;;;1.60;;
53646;SDS011;39550;52.230;5.194;2024-03-02T12:46:41;4.07;;;1.60;;
53646;SDS011;39550;52.230;5.194;2024-03-02T12:49:07;4.72;;;1.67;;
53646;SDS011;39550;52.230;5.194;2024-03-02T12:51:35;3.83;;;1.80;;
53646;SDS011;39550;52.230;5.194;2024-03-02T12:54:01;4.07;;;1.60;;
53646;SDS011;39550;52.230;5.194;2024-03-02T12:56:26;6.88;;;1.90;;
53646;SDS011;39550;52.230;5.194;2024-03-02T12:58:53;4.38;;;1.83;;
53646;SDS011;39550;52.230;5.194;2024-03-02T13:01:22;3.42;;;1.73;;
53646;SDS011;39550;52.230;5.194;2024-03-02T13:03:48;8.20;;;2.28;;
53646;SDS011;39550;52.230;5.194;2024-03-02T13:06:16;5.03;;;1.73;;
53646;SDS011;39550;52.230;5.194;2024-03-02T13:08:42;7.75;;;1.90;;
53646;SDS011;39550;52.230;5.194;2024-03-02T13:11:07;3.67;;;1.80;;
53646;SDS011;39550;52.230;5.194;2024-03-02T13:13:33;6.28;;;1.80;;
53646;SDS011;39550;52.230;5.194;2024-03-02T13:15:59;4.82;;;2.05;;
53646;SDS011;39550;52.230;5.194;2024-03-02T13:18:25;5.63;;;1.70;;
53646;SDS011;39550;52.230;5.194;2024-03-02T13:20:51;3.38;;;1.60;;
53646;SDS011;39550;52.230;5.194;2024-03-02T13:23:16;7.45;;;1.90;;
53646;SDS011;39550;52.230;5.194;2024-03-02T13:25:42;2.92;;;1.50;;
53646;SDS011;39550;52.230;5.194;2024-03-02T13:28:08;5.18;;;1.60;;
53646;SDS011;39550;52.230;5.194;2024-03-02T13:30:33;4.78;;;1.85;;
53646;SDS011;39550;52.230;5.194;2024-03-02T13:32:59;6.57;;;1.70;;
53646;SDS011;39550;52.230;5.194;2024-03-02T13:35:24;3.95;;;1.83;;
53646;SDS011;39550;52.230;5.194;2024-03-02T13:37:49;4.28;;;2.25;;
53646;SDS011;39550;52.230;5.194;2024-03-02T13:40:15;3.28;;;1.67;;
53646;SDS011;39550;52.230;5.194;2024-03-02T13:42:45;5.38;;;2.08;;
53646;SDS011;39550;52.230;5.194;2024-03-02T13:45:13;5.75;;;2.00;;
53646;SDS011;39550;52.230;5.194;2024-03-02T13:47:38;7.47;;;1.90;;
53646;SDS011;39550;52.230;5.194;2024-03-02T13:50:04;5.35;;;1.80;;
53646;SDS011;39550;52.230;5.194;2024-03-02T13:52:30;4.80;;;1.90;;
53646;SDS011;39550;52.230;5.194;2024-03-02T13:54:55;3.95;;;1.70;;
53646;SDS011;39550;52.230;5.194;2024-03-02T13:57:21;3.92;;;1.80;;
53646;SDS011;39550;52.230;5.194;2024-03-02T13:59:46;4.03;;;1.80;;
53646;SDS011;39550;52.230;5.194;2024-03-02T14:02:11;3.20;;;1.80;;
53646;SDS011;39550;52.230;5.194;2024-03-02T14:04:37;5.00;;;1.88;;
53646;SDS011;39550;52.230;5.194;2024-03-02T14:07:03;5.07;;;2.00;;
53646;SDS011;39550;52.230;5.194;2024-03-02T14:09:31;3.88;;;1.80;;
53646;SDS011;39550;52.230;5.194;2024-03-02T14:11:57;5.97;;;2.10;;
53646;SDS011;39550;52.230;5.194;2024-03-02T14:14:22;7.43;;;2.00;;
53646;SDS011;39550;52.230;5.194;2024-03-02T14:16:48;5.00;;;2.10;;
53646;SDS011;39550;52.230;5.194;2024-03-02T14:19:13;6.10;;;2.10;;
53646;SDS011;39550;52.230;5.194;2024-03-02T14:21:39;3.95;;;1.98;;
53646;SDS011;39550;52.230;5.194;2024-03-02T14:24:05;5.18;;;1.92;;
53646;SDS011;39550;52.230;5.194;2024-03-02T14:26:32;5.03;;;2.42;;
53646;SDS011;39550;52.230;5.194;2024-03-02T14:28:58;5.95;;;1.85;;
53646;SDS011;39550;52.230;5.194;2024-03-02T14:31:23;5.25;;;2.00;;
53646;SDS011;39550;52.230;5.194;2024-03-02T14:33:49;5.60;;;1.90;;
53646;SDS011;39550;52.230;5.194;2024-03-02T14:36:14;3.65;;;1.90;;
53646;SDS011;39550;52.230;5.194;2024-03-02T14:38:39;3.55;;;1.90;;
53646;SDS011;39550;52.230;5.194;2024-03-02T14:41:05;5.47;;;2.40;;
53646;SDS011;39550;52.230;5.194;2024-03-02T14:43:30;4.18;;;2.40;;
53646;SDS011;39550;52.230;5.194;2024-03-02T14:45:55;5.88;;;2.33;;
53646;SDS011;39550;52.230;5.194;2024-03-02T14:48:21;11.50;;;2.55;;
53646;SDS011;39550;52.230;5.194;2024-03-02T14:50:47;7.93;;;2.50;;
53646;SDS011;39550;52.230;5.194;2024-03-02T14:53:12;7.30;;;2.10;;
53646;SDS011;39550;52.230;5.194;2024-03-02T14:55:37;7.35;;;3.05;;
53646;SDS011;39550;52.230;5.194;2024-03-02T14:58:03;7.53;;;2.10;;
53646;SDS011;39550;52.230;5.194;2024-03-02T15:00:28;6.85;;;2.25;;
53646;SDS011;39550;52.230;5.194;2024-03-02T15:02:53;4.22;;;2.00;;